createdAt,value
2018-07-08T00:01:20.855Z,8.90
2018-07-08T00:03:49.410Z,9.60
2018-07-08T00:06:17.969Z,10.07
2018-07-08T00:08:46.644Z,8.60
2018-07-08T00:11:15.202Z,8.80
2018-07-08T00:13:43.765Z,8.53
2018-07-08T00:16:12.295Z,7.80
2018-07-08T00:18:40.849Z,8.00
2018-07-08T00:21:09.441Z,8.07
2018-07-08T00:23:37.967Z,7.43
2018-07-08T00:26:06.567Z,7.20
2018-07-08T00:28:35.115Z,7.80
2018-07-08T00:31:03.697Z,8.00
2018-07-08T00:33:32.263Z,8.27
2018-07-08T00:36:00.830Z,8.33
2018-07-08T00:38:29.400Z,8.60
2018-07-08T00:40:57.973Z,7.13
2018-07-08T00:43:26.491Z,7.67
2018-07-08T00:45:55.030Z,7.33
2018-07-08T00:48:23.601Z,7.97
2018-07-08T00:50:52.161Z,6.97
2018-07-08T00:53:20.747Z,7.47
2018-07-08T00:55:49.670Z,8.07
2018-07-08T00:58:18.199Z,7.33
2018-07-08T01:00:46.743Z,9.50
2018-07-08T01:03:15.344Z,7.97
2018-07-08T01:05:43.937Z,8.60
2018-07-08T01:08:12.492Z,8.03
2018-07-08T01:10:41.059Z,8.57
2018-07-08T01:13:09.606Z,8.50
2018-07-08T01:15:38.158Z,8.00
2018-07-08T01:18:06.819Z,8.10
2018-07-08T01:20:35.403Z,8.10
2018-07-08T01:23:03.936Z,8.97
2018-07-08T01:25:43.746Z,8.67
2018-07-08T01:28:12.259Z,8.60
2018-07-08T01:30:40.890Z,7.20
2018-07-08T01:33:09.496Z,8.13
2018-07-08T01:35:38.052Z,8.13
2018-07-08T01:38:06.599Z,8.07
2018-07-08T01:40:35.135Z,8.80
2018-07-08T01:43:03.758Z,8.83
2018-07-08T01:45:32.409Z,8.50
2018-07-08T01:48:00.988Z,8.53
2018-07-08T01:50:29.534Z,7.33
2018-07-08T01:52:58.140Z,10.10
2018-07-08T01:55:26.732Z,8.10
2018-07-08T01:57:55.295Z,9.37
2018-07-08T02:00:23.890Z,9.10
2018-07-08T02:02:52.465Z,9.17
2018-07-08T02:05:21.076Z,9.93
2018-07-08T02:07:49.704Z,10.33
2018-07-08T02:10:18.272Z,9.37
2018-07-08T02:12:46.804Z,9.03
2018-07-08T02:15:15.347Z,9.47
2018-07-08T02:17:50.210Z,9.97
2018-07-08T02:20:18.753Z,8.67
2018-07-08T02:22:47.409Z,9.53
2018-07-08T02:25:15.948Z,10.50
2018-07-08T02:27:44.579Z,11.57
2018-07-08T02:30:13.112Z,10.77
2018-07-08T02:32:41.698Z,10.80
2018-07-08T02:35:10.255Z,11.30
2018-07-08T02:37:38.836Z,10.87
2018-07-08T02:40:07.497Z,9.80
2018-07-08T02:42:36.077Z,10.00
2018-07-08T02:45:04.715Z,11.67
2018-07-08T02:47:33.316Z,11.10
2018-07-08T02:50:01.971Z,9.40
2018-07-08T02:52:30.525Z,8.83
2018-07-08T02:54:59.076Z,9.07
2018-07-08T02:57:27.607Z,9.57
2018-07-08T02:59:56.180Z,9.67
2018-07-08T03:02:24.780Z,10.60
2018-07-08T03:04:53.300Z,10.87
2018-07-08T03:07:21.871Z,11.60
2018-07-08T03:09:50.433Z,10.17
2018-07-08T03:12:18.992Z,9.80
2018-07-08T03:14:47.487Z,10.07
2018-07-08T03:17:16.013Z,10.53
2018-07-08T03:19:44.543Z,11.60
2018-07-08T03:22:13.076Z,10.17
2018-07-08T03:24:41.588Z,10.07
2018-07-08T03:27:10.160Z,12.37
2018-07-08T03:29:38.685Z,11.47
2018-07-08T03:32:07.370Z,11.10
2018-07-08T03:34:35.923Z,10.50
2018-07-08T03:37:04.484Z,9.60
2018-07-08T03:39:33.021Z,8.93
2018-07-08T03:42:01.551Z,8.60
2018-07-08T03:44:30.058Z,9.20
2018-07-08T03:46:58.608Z,8.83
2018-07-08T03:49:27.162Z,9.50
2018-07-08T03:51:55.722Z,9.03
2018-07-08T03:54:26.627Z,8.90
2018-07-08T03:56:55.232Z,10.07
2018-07-08T03:59:23.865Z,10.37
2018-07-08T04:01:52.418Z,11.30
2018-07-08T04:04:21.253Z,10.23
2018-07-08T04:06:49.884Z,10.07
2018-07-08T04:09:18.948Z,10.20
2018-07-08T04:11:47.988Z,10.17
2018-07-08T04:14:16.539Z,9.90
2018-07-08T04:16:45.593Z,10.43
2018-07-08T04:19:14.108Z,11.13
2018-07-08T04:21:42.685Z,9.70
2018-07-08T04:24:11.656Z,10.87
2018-07-08T04:26:40.236Z,11.03
2018-07-08T04:29:08.776Z,11.00
2018-07-08T04:31:37.316Z,10.57
2018-07-08T04:34:06.112Z,10.27
2018-07-08T04:36:34.623Z,12.17
2018-07-08T04:39:03.453Z,8.50
2018-07-08T04:41:31.988Z,11.23
2018-07-08T04:44:00.498Z,12.70
2018-07-08T04:46:29.105Z,10.67
2018-07-08T04:48:57.701Z,11.47
2018-07-08T04:51:26.234Z,10.20
2018-07-08T04:53:54.796Z,10.70
2018-07-08T04:56:23.335Z,10.00
2018-07-08T04:58:52.157Z,10.37
2018-07-08T05:01:20.727Z,10.50
2018-07-08T05:03:49.267Z,11.60
2018-07-08T05:06:17.831Z,10.87
2018-07-08T05:08:46.367Z,10.27
2018-07-08T05:11:14.928Z,11.40
2018-07-08T05:13:43.437Z,11.00
2018-07-08T05:16:12.004Z,11.70
2018-07-08T05:18:40.567Z,12.47
2018-07-08T05:21:09.488Z,10.90
2018-07-08T05:23:38.053Z,11.77
2018-07-08T05:26:06.542Z,11.07
2018-07-08T05:28:35.094Z,10.87
2018-07-08T05:31:03.664Z,10.90
2018-07-08T05:33:32.234Z,10.33
2018-07-08T05:36:00.738Z,11.90
2018-07-08T05:38:29.286Z,12.53
2018-07-08T05:40:57.827Z,11.23
2018-07-08T05:43:26.417Z,9.57
2018-07-08T05:45:55.018Z,10.50
2018-07-08T05:48:23.520Z,9.90
2018-07-08T05:50:52.050Z,9.50
2018-07-08T05:53:20.583Z,9.50
2018-07-08T05:55:49.149Z,10.27
2018-07-08T05:58:17.712Z,8.90
2018-07-08T06:00:46.303Z,9.00
2018-07-08T06:03:14.848Z,9.17
2018-07-08T06:05:43.428Z,9.33
2018-07-08T06:08:12.004Z,7.63
2018-07-08T06:10:40.505Z,7.30
2018-07-08T06:13:09.116Z,7.27
2018-07-08T06:15:37.641Z,8.37
2018-07-08T06:18:06.206Z,7.93
2018-07-08T06:20:34.731Z,7.07
2018-07-08T06:23:03.296Z,7.20
2018-07-08T06:25:31.837Z,6.73
2018-07-08T06:28:00.365Z,7.43
2018-07-08T06:30:29.201Z,6.83
2018-07-08T06:32:57.692Z,7.50
2018-07-08T06:35:26.220Z,7.30
2018-07-08T06:37:54.799Z,7.20
2018-07-08T06:40:23.311Z,7.70
2018-07-08T06:42:51.822Z,6.73
2018-07-08T06:45:20.483Z,7.40
2018-07-08T06:47:49.104Z,6.93
2018-07-08T06:50:17.825Z,7.23
2018-07-08T06:52:46.413Z,6.77
2018-07-08T06:55:14.929Z,7.07
2018-07-08T06:57:43.616Z,6.63
2018-07-08T07:00:12.158Z,6.50
2018-07-08T07:02:40.657Z,6.90
2018-07-08T07:05:09.189Z,6.90
2018-07-08T07:07:37.723Z,7.07
2018-07-08T07:10:06.384Z,7.50
2018-07-08T07:12:36.127Z,7.07
2018-07-08T07:15:04.811Z,7.30
2018-07-08T07:17:33.626Z,6.67
2018-07-08T07:20:02.977Z,6.87
2018-07-08T07:22:31.564Z,6.60
2018-07-08T07:25:00.143Z,6.60
2018-07-08T07:27:28.684Z,7.70
2018-07-08T07:29:57.248Z,6.50
2018-07-08T07:32:25.784Z,7.40
2018-07-08T07:34:54.337Z,7.40
2018-07-08T07:37:22.928Z,7.20
2018-07-08T07:39:51.430Z,6.80
2018-07-08T07:42:20.013Z,6.63
2018-07-08T07:44:48.536Z,6.57
2018-07-08T07:47:17.059Z,6.23
2018-07-08T07:49:45.675Z,6.70
2018-07-08T07:52:14.263Z,6.33
2018-07-08T07:54:42.780Z,7.47
2018-07-08T07:57:11.539Z,6.90
2018-07-08T07:59:40.087Z,7.90
2018-07-08T08:02:08.675Z,7.10
2018-07-08T08:04:37.179Z,6.90
2018-07-08T08:07:05.921Z,7.53
2018-07-08T08:09:34.513Z,7.50
2018-07-08T08:12:03.120Z,6.00
2018-07-08T08:14:31.775Z,8.17
2018-07-08T08:17:00.361Z,7.77
2018-07-08T08:19:28.892Z,6.93
2018-07-08T08:21:57.135Z,7.43
2018-07-08T08:24:25.709Z,6.70
2018-07-08T08:26:54.240Z,7.30
2018-07-08T08:29:24.054Z,5.73
2018-07-08T08:31:52.636Z,7.30
2018-07-08T08:34:53.187Z,6.77
2018-07-08T08:37:23.071Z,7.53
2018-07-08T08:39:52.416Z,6.73
2018-07-08T08:42:21.039Z,6.30
2018-07-08T08:44:50.255Z,7.10
2018-07-08T08:47:19.171Z,6.63
2018-07-08T08:49:48.989Z,6.40
2018-07-08T08:52:17.599Z,6.03
2018-07-08T08:54:46.183Z,7.13
2018-07-08T08:57:14.772Z,6.70
2018-07-08T08:59:43.331Z,7.23
2018-07-08T09:02:12.071Z,7.07
2018-07-08T09:04:41.325Z,5.83
2018-07-08T09:07:11.197Z,6.13
2018-07-08T09:09:39.770Z,5.53
2018-07-08T09:12:08.724Z,7.00
2018-07-08T09:14:37.821Z,6.60
2018-07-08T09:17:06.491Z,6.00
2018-07-08T09:19:35.037Z,6.30
2018-07-08T09:22:03.633Z,6.20
2018-07-08T09:24:32.111Z,6.57
2018-07-08T09:27:00.676Z,6.13
2018-07-08T09:29:29.240Z,6.77
2018-07-08T09:31:57.777Z,6.87
2018-07-08T09:34:26.309Z,7.30
2018-07-08T09:36:54.989Z,5.70
2018-07-08T09:39:23.564Z,6.50
2018-07-08T09:41:52.159Z,6.73
2018-07-08T09:44:20.803Z,6.30
2018-07-08T09:46:49.774Z,5.80
2018-07-08T09:49:18.325Z,5.70
2018-07-08T09:51:47.584Z,6.43
2018-07-08T09:54:16.439Z,5.70
2018-07-08T09:56:44.997Z,5.90
2018-07-08T09:59:13.539Z,6.47
2018-07-08T10:01:43.891Z,5.77
2018-07-08T10:04:13.775Z,5.80
2018-07-08T10:06:42.940Z,5.27
2018-07-08T10:09:12.775Z,5.20
2018-07-08T10:11:41.443Z,6.30
2018-07-08T10:14:11.716Z,4.53
2018-07-08T10:16:40.280Z,5.77
2018-07-08T10:19:09.402Z,5.80
2018-07-08T10:21:38.018Z,5.10
2018-07-08T10:24:06.620Z,6.50
2018-07-08T10:26:35.425Z,6.10
2018-07-08T10:29:04.042Z,5.33
2018-07-08T10:31:45.040Z,6.10
2018-07-08T10:34:13.625Z,5.13
2018-07-08T10:36:42.169Z,5.43
2018-07-08T10:39:12.076Z,5.30
2018-07-08T10:41:41.088Z,5.50
2018-07-08T10:44:09.933Z,5.97
2018-07-08T10:46:38.509Z,5.90
2018-07-08T10:49:07.369Z,6.27
2018-07-08T10:51:35.929Z,5.50
2018-07-08T10:54:04.700Z,6.50
2018-07-08T10:56:33.225Z,5.73
2018-07-08T10:59:08.821Z,5.30
2018-07-08T11:01:37.430Z,5.40
2018-07-08T11:04:06.429Z,5.57
2018-07-08T11:06:35.225Z,6.70
2018-07-08T11:09:04.775Z,5.77
2018-07-08T11:11:33.334Z,5.73
2018-07-08T11:14:01.608Z,5.87
2018-07-08T11:16:30.161Z,6.60
2018-07-08T11:18:58.716Z,6.90
2018-07-08T11:21:27.263Z,6.03
2018-07-08T11:23:55.802Z,6.37
2018-07-08T11:26:24.377Z,5.53
2018-07-08T11:28:52.921Z,7.37
2018-07-08T11:31:21.436Z,6.70
2018-07-08T11:33:50.077Z,5.87
2018-07-08T11:36:18.566Z,6.53
2018-07-08T11:38:47.174Z,6.90
2018-07-08T11:41:15.776Z,6.93
2018-07-08T11:43:44.351Z,7.37
2018-07-08T11:46:12.854Z,6.63
2018-07-08T11:48:41.431Z,7.20
2018-07-08T11:51:09.977Z,7.20
2018-07-08T11:53:38.546Z,6.77
2018-07-08T11:56:07.152Z,5.87
2018-07-08T11:58:35.729Z,6.90
2018-07-08T12:01:04.308Z,7.10
2018-07-08T12:03:33.068Z,6.30
2018-07-08T12:06:01.602Z,6.37
2018-07-08T12:08:30.174Z,6.13
2018-07-08T12:10:58.729Z,6.70
2018-07-08T12:13:27.229Z,5.90
2018-07-08T12:15:55.777Z,6.73
2018-07-08T12:18:24.293Z,5.70
2018-07-08T12:20:52.946Z,6.47
2018-07-08T12:23:21.464Z,5.60
2018-07-08T12:25:50.089Z,5.80
2018-07-08T12:28:18.654Z,7.20
2018-07-08T12:30:47.236Z,5.90
2018-07-08T12:33:15.794Z,5.90
2018-07-08T12:35:44.345Z,5.90
2018-07-08T12:38:12.852Z,6.13
2018-07-08T12:40:41.426Z,6.43
2018-07-08T12:43:09.971Z,6.10
2018-07-08T12:45:38.471Z,5.73
2018-07-08T12:48:07.036Z,6.10
2018-07-08T12:50:35.577Z,6.30
2018-07-08T12:53:04.116Z,5.43
2018-07-08T12:55:32.693Z,5.83
2018-07-08T12:58:01.295Z,5.70
2018-07-08T13:00:29.909Z,5.37
2018-07-08T13:02:58.456Z,5.80
2018-07-08T13:05:27.055Z,6.00
2018-07-08T13:07:55.575Z,5.83
2018-07-08T13:10:24.196Z,5.87
2018-07-08T13:12:52.756Z,5.90
2018-07-08T13:15:21.303Z,5.67
2018-07-08T13:17:49.876Z,5.63
2018-07-08T13:20:18.464Z,5.87
2018-07-08T13:22:47.023Z,5.20
2018-07-08T13:25:15.593Z,5.43
2018-07-08T13:27:44.156Z,4.80
2018-07-08T13:30:12.673Z,5.37
2018-07-08T13:32:41.244Z,5.43
2018-07-08T13:35:09.787Z,5.43
2018-07-08T13:37:38.359Z,5.23
2018-07-08T13:40:07.130Z,5.73
2018-07-08T13:42:35.796Z,4.93
2018-07-08T13:45:04.775Z,4.80
2018-07-08T13:47:33.332Z,4.90
2018-07-08T13:50:01.881Z,5.30
2018-07-08T13:52:30.425Z,4.90
2018-07-08T13:54:58.997Z,5.17
2018-07-08T13:57:27.719Z,4.53
2018-07-08T13:59:56.317Z,4.63
2018-07-08T14:02:24.889Z,4.67
2018-07-08T14:04:53.607Z,4.53
2018-07-08T14:07:22.115Z,4.70
2018-07-08T14:09:50.730Z,5.33
2018-07-08T14:12:19.278Z,4.50
2018-07-08T14:14:47.855Z,4.33
2018-07-08T14:17:16.388Z,4.20
2018-07-08T14:19:44.910Z,4.50
2018-07-08T14:22:13.462Z,4.73
2018-07-08T14:24:42.497Z,4.80
2018-07-08T14:27:11.047Z,4.37
2018-07-08T14:29:39.425Z,5.30
2018-07-08T14:32:08.149Z,4.23
2018-07-08T14:34:36.688Z,4.80
2018-07-08T14:37:05.241Z,4.23
2018-07-08T14:39:33.848Z,4.73
2018-07-08T14:42:02.418Z,4.90
2018-07-08T14:44:30.977Z,4.60
2018-07-08T14:46:59.537Z,5.13
2018-07-08T14:49:28.088Z,3.80
2018-07-08T14:51:56.583Z,4.70
2018-07-08T14:54:25.167Z,4.80
2018-07-08T14:56:53.661Z,3.60
2018-07-08T14:59:22.212Z,4.90
2018-07-08T15:01:50.776Z,4.70
2018-07-08T15:04:19.332Z,3.93
2018-07-08T15:06:47.852Z,3.70
2018-07-08T15:09:16.551Z,3.87
2018-07-08T15:11:45.048Z,3.50
2018-07-08T15:14:13.632Z,4.37
2018-07-08T15:16:42.168Z,3.70
2018-07-08T15:19:10.726Z,4.00
2018-07-08T15:21:39.255Z,3.77
2018-07-08T15:24:08.070Z,3.47
2018-07-08T15:26:36.616Z,3.20
2018-07-08T15:29:05.192Z,3.70
2018-07-08T15:31:33.809Z,3.50
2018-07-08T15:34:02.342Z,3.53
2018-07-08T15:36:31.022Z,3.63
2018-07-08T15:38:59.595Z,3.53
2018-07-08T15:41:28.182Z,3.37
2018-07-08T15:43:56.676Z,3.17
2018-07-08T15:46:25.254Z,3.40
2018-07-08T15:48:53.753Z,3.53
2018-07-08T15:51:22.353Z,3.63
2018-07-08T15:53:50.996Z,3.20
2018-07-08T15:56:19.547Z,3.20
2018-07-08T15:58:48.088Z,3.43
2018-07-08T16:01:16.683Z,3.10
2018-07-08T16:03:45.320Z,2.90
2018-07-08T16:06:13.878Z,3.13
2018-07-08T16:08:42.534Z,3.07
2018-07-08T16:11:11.115Z,3.40
2018-07-08T16:13:39.865Z,3.10
2018-07-08T16:16:08.477Z,2.87
2018-07-08T16:18:37.082Z,2.87
2018-07-08T16:21:05.642Z,2.43
2018-07-08T16:23:34.598Z,3.97
2018-07-08T16:26:03.213Z,2.07
2018-07-08T16:28:31.751Z,2.80
2018-07-08T16:31:00.351Z,2.40
2018-07-08T16:33:28.931Z,2.87
2018-07-08T16:35:58.022Z,3.57
2018-07-08T16:38:26.641Z,2.27
2018-07-08T16:40:56.219Z,2.70
2018-07-08T16:43:25.217Z,2.60
2018-07-08T16:45:53.759Z,2.97
2018-07-08T16:48:22.467Z,2.80
2018-07-08T16:50:51.024Z,2.50
2018-07-08T16:53:19.523Z,2.50
2018-07-08T16:55:50.483Z,3.00
2018-07-08T16:58:19.643Z,2.90
2018-07-08T17:00:47.903Z,3.00
2018-07-08T17:03:16.429Z,2.63
2018-07-08T17:05:45.761Z,3.13
2018-07-08T17:08:14.477Z,2.60
2018-07-08T17:10:43.059Z,2.77
2018-07-08T17:13:13.500Z,2.20
2018-07-08T17:15:42.174Z,2.57
2018-07-08T17:18:10.747Z,2.67
2018-07-08T17:20:39.279Z,2.63
2018-07-08T17:23:07.965Z,2.40
2018-07-08T17:25:36.585Z,2.30
2018-07-08T17:28:05.242Z,3.27
2018-07-08T17:30:33.774Z,2.60
2018-07-08T17:33:02.382Z,3.10
2018-07-08T17:35:33.487Z,2.67
2018-07-08T17:38:02.180Z,2.73
2018-07-08T17:40:30.710Z,2.93
2018-07-08T17:42:59.807Z,2.37
2018-07-08T17:45:28.475Z,2.50
2018-07-08T17:47:56.987Z,2.70
2018-07-08T17:50:25.565Z,2.07
2018-07-08T17:52:54.235Z,2.83
2018-07-08T17:55:22.769Z,2.53
2018-07-08T17:57:51.535Z,2.53
2018-07-08T18:00:20.057Z,2.83
2018-07-08T18:02:48.686Z,2.13
2018-07-08T18:05:17.214Z,2.80
2018-07-08T18:07:45.764Z,2.40
2018-07-08T18:10:14.293Z,2.37
2018-07-08T18:12:42.843Z,3.33
2018-07-08T18:15:11.421Z,2.57
2018-07-08T18:17:40.029Z,1.97
2018-07-08T18:20:08.871Z,2.60
2018-07-08T18:22:37.537Z,2.30
2018-07-08T18:25:06.096Z,2.53
2018-07-08T18:27:34.654Z,2.00
2018-07-08T18:30:03.301Z,2.60
2018-07-08T18:32:31.851Z,2.50
2018-07-08T18:35:00.487Z,2.07
2018-07-08T18:37:29.062Z,2.40
2018-07-08T18:39:57.663Z,2.53
2018-07-08T18:42:26.266Z,1.93
2018-07-08T18:44:54.868Z,2.37
2018-07-08T18:47:23.817Z,2.50
2018-07-08T18:49:52.376Z,2.00
2018-07-08T18:52:20.949Z,2.07
2018-07-08T18:54:51.615Z,2.27
2018-07-08T18:57:20.361Z,2.23
2018-07-08T18:59:49.000Z,2.53
2018-07-08T19:02:17.512Z,2.60
2018-07-08T19:04:46.111Z,2.80
2018-07-08T19:07:14.668Z,2.20
2018-07-08T19:09:42.875Z,3.13
2018-07-08T19:12:12.204Z,2.57
2018-07-08T19:14:40.746Z,2.40
2018-07-08T19:17:09.336Z,2.17
2018-07-08T19:19:37.859Z,2.47
2018-07-08T19:22:06.415Z,2.30
2018-07-08T19:24:35.221Z,2.80
2018-07-08T19:27:03.793Z,2.63
2018-07-08T19:29:32.326Z,2.00
2018-07-08T19:32:00.858Z,2.70
2018-07-08T19:34:30.324Z,2.03
2018-07-08T19:36:59.441Z,3.10
2018-07-08T19:39:28.273Z,2.80
2018-07-08T19:41:56.974Z,3.00
2018-07-08T19:44:25.493Z,2.40
2018-07-08T19:46:54.471Z,3.00
2018-07-08T19:49:23.004Z,2.10
2018-07-08T19:51:51.740Z,2.50
2018-07-08T19:54:20.269Z,2.30
2018-07-08T19:56:48.816Z,2.67
2018-07-08T19:59:17.375Z,2.30
2018-07-08T20:01:45.936Z,2.63
2018-07-08T20:04:14.552Z,2.23
2018-07-08T20:06:43.149Z,2.70
2018-07-08T20:09:11.700Z,2.43
2018-07-08T20:11:40.306Z,2.50
2018-07-08T20:14:08.890Z,2.20
2018-07-08T20:16:37.482Z,2.10
2018-07-08T20:19:06.016Z,2.70
2018-07-08T20:21:34.634Z,2.47
2018-07-08T20:24:03.247Z,2.80
2018-07-08T20:26:31.800Z,2.43
2018-07-08T20:29:00.339Z,2.53
2018-07-08T20:31:28.948Z,2.70
2018-07-08T20:33:57.511Z,2.50
2018-07-08T20:36:26.149Z,2.50
2018-07-08T20:38:54.680Z,3.07
2018-07-08T20:41:23.258Z,2.97
2018-07-08T20:43:51.894Z,2.33
2018-07-08T20:46:20.458Z,2.60
2018-07-08T20:48:49.037Z,2.90
2018-07-08T20:51:17.565Z,2.63
2018-07-08T20:53:46.170Z,2.80
2018-07-08T20:56:14.702Z,3.63
2018-07-08T20:58:43.654Z,3.00
2018-07-08T21:01:12.195Z,4.43
2018-07-08T21:03:40.708Z,2.60
2018-07-08T21:06:09.295Z,3.13
2018-07-08T21:08:37.812Z,3.13
2018-07-08T21:11:06.415Z,2.90
2018-07-08T21:13:34.996Z,3.67
2018-07-08T21:16:03.971Z,3.07
2018-07-08T21:18:32.520Z,2.80
2018-07-08T21:21:01.067Z,3.70
2018-07-08T21:23:29.687Z,3.40
2018-07-08T21:25:58.286Z,3.00
2018-07-08T21:28:26.868Z,3.93
2018-07-08T21:30:55.493Z,3.33
2018-07-08T21:33:24.088Z,3.90
2018-07-08T21:35:52.696Z,4.90
2018-07-08T21:38:21.330Z,3.93
2018-07-08T21:40:49.844Z,4.50
2018-07-08T21:43:18.413Z,3.63
2018-07-08T21:45:47.016Z,4.23
2018-07-08T21:48:15.565Z,3.60
2018-07-08T21:50:43.782Z,3.33
2018-07-08T21:53:12.353Z,4.13
2018-07-08T21:55:40.987Z,4.17
2018-07-08T21:58:09.608Z,3.80
2018-07-08T22:00:48.025Z,4.40
2018-07-08T22:03:16.242Z,4.30
2018-07-08T22:05:44.753Z,3.60
2018-07-08T22:08:13.271Z,4.50
2018-07-08T22:10:41.852Z,4.27
2018-07-08T22:13:10.390Z,4.20
2018-07-08T22:15:38.998Z,4.73
2018-07-08T22:18:07.537Z,3.90
2018-07-08T22:20:36.163Z,4.80
2018-07-08T22:23:04.713Z,4.57
2018-07-08T22:25:33.306Z,4.93
2018-07-08T22:28:01.865Z,4.30
2018-07-08T22:30:30.414Z,4.47
2018-07-08T22:32:59.053Z,4.70
2018-07-08T22:35:27.659Z,4.70
2018-07-08T22:37:56.190Z,4.87
2018-07-08T22:40:24.764Z,5.20
2018-07-08T22:42:53.337Z,6.03
2018-07-08T22:45:21.882Z,5.00
2018-07-08T22:47:50.478Z,4.53
2018-07-08T22:50:19.049Z,5.10
2018-07-08T22:52:48.002Z,4.90
2018-07-08T22:55:16.572Z,4.30
2018-07-08T22:57:45.072Z,4.67
2018-07-08T23:00:24.857Z,4.73
2018-07-08T23:04:05.672Z,5.43
2018-07-08T23:06:34.380Z,4.90
2018-07-08T23:09:04.463Z,4.70
2018-07-08T23:11:33.018Z,4.53
2018-07-08T23:14:01.620Z,4.80
2018-07-08T23:16:30.453Z,4.73
2018-07-08T23:18:59.042Z,5.00
2018-07-08T23:21:27.556Z,5.20
2018-07-08T23:23:56.133Z,5.10
2018-07-08T23:26:24.664Z,4.27
2018-07-08T23:28:53.268Z,4.70
2018-07-08T23:31:21.835Z,5.50
2018-07-08T23:33:50.333Z,6.73
2018-07-08T23:36:18.943Z,4.33
2018-07-08T23:38:47.484Z,5.13
2018-07-08T23:41:16.044Z,4.80
2018-07-08T23:43:44.240Z,5.20
2018-07-08T23:46:12.808Z,4.77
2018-07-08T23:48:41.381Z,5.20
2018-07-08T23:51:09.931Z,5.57
2018-07-08T23:53:38.521Z,5.57
2018-07-08T23:56:07.121Z,5.27
2018-07-08T23:58:35.670Z,5.30
